Time;durP1;ratioP1;P1;durP2;ratioP2;P2;SDS_P1;SDS_P2;PMS_P1;PMS_P2;Temp;Humidity;BMP_temperature;BMP_pressure;BME280_temperature;BME280_humidity;BME280_pressure;Samples;Min_cycle;Max_cycle;Signal;HPM_P1;HPM_P2
2021/08/26 00:07:33;;;;;;;9.02;7.82;;;24.00;86.50;;;;;;5021809;28;20061;-64
2021/08/26 00:09:59;;;;;;;12.98;9.60;;;24.00;85.30;;;;;;5029466;28;20061;-64
2021/08/26 00:12:25;;;;;;;9.82;7.30;;;24.00;86.10;;;;;;5024160;28;20430;-64
2021/08/26 00:14:50;;;;;;;16.38;10.25;;;24.00;86.70;;;;;;5025654;28;20068;-64
2021/08/26 00:17:16;;;;;;;9.23;6.55;;;23.90;86.80;;;;;;5028926;28;20033;-64
2021/08/26 00:19:42;;;;;;;11.10;6.65;;;23.90;87.40;;;;;;5026822;28;20037;-64
2021/08/26 00:22:08;;;;;;;9.55;7.05;;;23.90;88.40;;;;;;5024139;28;20040;-64
2021/08/26 00:24:35;;;;;;;8.82;5.25;;;23.80;89.70;;;;;;5024247;28;20022;-64
2021/08/26 00:27:01;;;;;;;9.23;6.15;;;23.80;89.90;;;;;;5027231;28;20037;-64
2021/08/26 00:29:26;;;;;;;7.10;5.13;;;23.80;88.40;;;;;;5034026;28;20029;-64
2021/08/26 00:31:52;;;;;;;16.40;10.13;;;23.80;89.00;;;;;;5034509;28;20029;-64
2021/08/26 00:34:17;;;;;;;9.13;6.68;;;23.70;88.10;;;;;;5033707;28;20031;-64
2021/08/26 00:36:44;;;;;;;9.02;6.45;;;23.80;87.90;;;;;;5033490;28;20026;-64
2021/08/26 00:39:09;;;;;;;7.88;6.50;;;23.70;87.40;;;;;;5033564;28;20087;-64
2021/08/26 00:41:36;;;;;;;5.00;3.80;;;23.70;87.20;;;;;;5033861;28;20068;-64
2021/08/26 00:44:02;;;;;;;5.75;5.20;;;23.70;86.20;;;;;;5035685;28;20029;-64
2021/08/26 00:46:30;;;;;;;6.80;5.60;;;23.60;85.90;;;;;;5033146;28;20072;-64
2021/08/26 00:48:56;;;;;;;14.07;7.22;;;23.60;85.80;;;;;;5034047;28;20053;-64
2021/08/26 00:51:21;;;;;;;9.07;6.88;;;23.60;86.50;;;;;;5034464;28;20058;-64
2021/08/26 00:53:48;;;;;;;7.30;5.13;;;23.50;86.40;;;;;;5030626;28;20030;-64
2021/08/26 00:56:14;;;;;;;7.20;5.03;;;23.60;86.70;;;;;;5021173;28;20079;-64
2021/08/26 00:58:46;;;;;;;8.57;6.00;;;23.60;87.30;;;;;;5025139;28;20438;-64
2021/08/26 01:01:12;;;;;;;14.70;8.60;;;23.50;86.80;;;;;;5022224;28;20487;-64
2021/08/26 01:03:52;;;;;;;12.20;7.40;;;23.60;86.60;;;;;;5025430;28;20034;-64
2021/08/26 01:06:24;;;;;;;6.82;4.68;;;23.50;87.70;;;;;;5022616;28;20091;-64
2021/08/26 01:09:03;;;;;;;6.50;4.72;;;23.40;87.10;;;;;;5027751;28;20069;-64
2021/08/26 01:11:32;;;;;;;7.10;4.45;;;23.40;86.90;;;;;;5023511;28;20056;-64
2021/08/26 01:13:58;;;;;;;7.22;3.78;;;23.30;87.10;;;;;;5033847;28;20065;-64
2021/08/26 01:16:24;;;;;;;4.25;3.20;;;23.30;86.40;;;;;;5029864;28;20067;-64
2021/08/26 01:18:49;;;;;;;5.05;3.90;;;23.30;87.00;;;;;;5032449;28;20029;-64
2021/08/26 01:21:17;;;;;;;5.47;3.58;;;23.30;87.20;;;;;;5022154;28;20151;-64
2021/08/26 01:23:49;;;;;;;6.03;3.47;;;23.20;87.20;;;;;;5027713;28;20026;-64
2021/08/26 01:26:34;;;;;;;5.32;3.50;;;23.30;86.90;;;;;;5032566;28;20505;-64
2021/08/26 01:29:02;;;;;;;6.30;3.67;;;23.30;87.90;;;;;;5027289;28;20067;-64
2021/08/26 01:31:27;;;;;;;6.50;3.90;;;23.30;87.50;;;;;;5030059;28;20087;-64
2021/08/26 01:33:54;;;;;;;7.65;3.72;;;23.30;87.20;;;;;;5031001;28;20112;-64
2021/08/26 01:36:21;;;;;;;6.43;3.65;;;23.20;87.60;;;;;;5033230;28;20135;-64
2021/08/26 01:38:47;;;;;;;5.07;3.92;;;23.20;87.90;;;;;;5023076;28;20108;-64
2021/08/26 01:41:14;;;;;;;4.43;3.33;;;23.20;87.90;;;;;;5026139;28;20037;-64
2021/08/26 01:43:43;;;;;;;6.28;3.58;;;23.10;87.90;;;;;;5033267;28;20028;-64
2021/08/26 01:46:09;;;;;;;6.38;3.67;;;23.10;87.70;;;;;;5030717;28;20049;-64
2021/08/26 01:48:35;;;;;;;3.85;3.28;;;23.10;88.60;;;;;;5021394;28;20021;-64
2021/08/26 01:51:00;;;;;;;6.50;3.35;;;23.10;88.30;;;;;;5027623;28;20039;-64
2021/08/26 01:53:26;;;;;;;6.72;3.45;;;23.10;88.40;;;;;;5034715;28;20037;-64
2021/08/26 01:55:51;;;;;;;6.32;3.67;;;23.10;88.50;;;;;;5030535;28;20029;-64
2021/08/26 01:58:17;;;;;;;4.93;3.70;;;23.10;88.00;;;;;;5019751;28;20401;-64
2021/08/26 02:00:44;;;;;;;3.70;3.28;;;23.10;88.40;;;;;;5027752;28;20053;-64
2021/08/26 02:03:09;;;;;;;3.70;2.92;;;23.10;89.00;;;;;;5015083;28;20430;-64
2021/08/26 02:05:35;;;;;;;4.60;3.10;;;23.00;87.20;;;;;;5024532;28;20030;-64
2021/08/26 02:08:01;;;;;;;5.38;3.38;;;23.00;87.40;;;;;;5032848;28;20447;-64
2021/08/26 02:10:26;;;;;;;6.50;3.60;;;23.10;86.60;;;;;;5017340;28;20030;-64
2021/08/26 02:12:52;;;;;;;6.18;3.40;;;23.00;86.60;;;;;;5023673;28;20049;-64
2021/08/26 02:15:19;;;;;;;4.97;3.00;;;23.00;86.50;;;;;;5015648;28;20064;-64
2021/08/26 02:17:45;;;;;;;5.35;4.10;;;23.00;86.20;;;;;;5029638;28;20022;-64
2021/08/26 02:20:12;;;;;;;9.55;4.03;;;23.00;85.70;;;;;;5032372;28;20108;-64
2021/08/26 02:22:37;;;;;;;5.75;3.30;;;23.00;85.90;;;;;;5033003;28;20033;-64
2021/08/26 02:25:07;;;;;;;6.28;3.50;;;23.00;85.70;;;;;;5028875;28;20059;-64
2021/08/26 02:27:33;;;;;;;4.93;2.92;;;23.00;87.50;;;;;;5027033;28;20480;-64
2021/08/26 02:29:58;;;;;;;5.97;3.38;;;22.90;86.70;;;;;;5015150;28;20061;-64
2021/08/26 02:32:29;;;;;;;4.05;2.72;;;23.00;86.70;;;;;;5032448;28;20033;-64
2021/08/26 02:34:56;;;;;;;4.65;3.35;;;22.90;87.40;;;;;;5027779;28;20025;-64
2021/08/26 02:37:21;;;;;;;5.85;3.25;;;22.90;86.50;;;;;;5026645;28;20056;-64
2021/08/26 02:39:47;;;;;;;4.22;2.72;;;22.90;87.10;;;;;;5021296;28;20033;-64
2021/08/26 02:42:12;;;;;;;4.78;3.30;;;22.80;86.60;;;;;;5027666;28;20036;-64
2021/08/26 02:44:38;;;;;;;4.78;2.80;;;22.90;87.60;;;;;;5023105;28;20045;-64
2021/08/26 02:47:04;;;;;;;3.90;3.28;;;22.90;87.00;;;;;;5026240;28;20087;-64
2021/08/26 02:49:29;;;;;;;4.43;3.08;;;22.90;86.20;;;;;;5029949;28;20025;-64
2021/08/26 02:51:55;;;;;;;7.70;2.97;;;22.80;86.00;;;;;;5020621;28;20212;-64
2021/08/26 02:54:20;;;;;;;7.55;3.50;;;22.80;86.10;;;;;;5029938;28;20029;-64
2021/08/26 02:56:46;;;;;;;6.35;3.13;;;22.80;85.90;;;;;;5027316;28;20030;-64
2021/08/26 02:59:11;;;;;;;3.10;2.70;;;22.80;85.80;;;;;;5028710;28;20073;-64
2021/08/26 03:01:37;;;;;;;6.20;3.45;;;22.70;86.10;;;;;;5027673;28;20035;-64
2021/08/26 03:04:02;;;;;;;3.85;2.97;;;22.70;86.40;;;;;;5030993;28;20080;-64
2021/08/26 03:06:28;;;;;;;5.47;3.03;;;22.70;87.40;;;;;;5030792;28;20037;-64
2021/08/26 03:08:54;;;;;;;4.13;3.05;;;22.70;86.50;;;;;;5032876;28;20506;-64
2021/08/26 03:11:20;;;;;;;3.95;3.15;;;22.70;86.80;;;;;;5030208;28;20502;-64
2021/08/26 03:13:46;;;;;;;4.65;2.90;;;22.70;86.60;;;;;;5031959;28;20045;-64
2021/08/26 03:16:11;;;;;;;9.13;3.13;;;22.60;85.90;;;;;;5030655;28;20089;-63
2021/08/26 03:18:38;;;;;;;6.45;3.20;;;22.50;86.70;;;;;;5028366;28;20490;-63
2021/08/26 03:21:03;;;;;;;4.20;3.25;;;22.70;87.20;;;;;;5004680;28;20033;-63
2021/08/26 03:23:29;;;;;;;5.00;2.60;;;22.60;87.50;;;;;;5015412;28;20018;-63
2021/08/26 03:25:54;;;;;;;5.38;3.10;;;22.60;87.80;;;;;;5027080;28;20037;-63
2021/08/26 03:28:20;;;;;;;6.72;2.80;;;22.60;88.30;;;;;;5021514;28;20022;-63
2021/08/26 03:30:46;;;;;;;4.00;3.33;;;22.60;89.40;;;;;;5021687;28;20505;-63
2021/08/26 03:33:12;;;;;;;5.07;3.72;;;22.60;88.50;;;;;;5031520;28;20091;-63
2021/08/26 03:35:37;;;;;;;10.95;3.50;;;22.60;89.70;;;;;;5030473;28;20030;-63
2021/08/26 03:38:03;;;;;;;3.42;3.05;;;22.60;90.20;;;;;;5025566;28;20096;-63
2021/08/26 03:40:29;;;;;;;5.20;3.00;;;22.50;90.20;;;;;;5032168;28;20037;-63
2021/08/26 03:42:55;;;;;;;5.75;3.42;;;22.60;90.30;;;;;;5031490;28;20032;-63
2021/08/26 03:45:21;;;;;;;5.28;2.83;;;22.60;90.90;;;;;;5029234;28;20026;-63
2021/08/26 03:47:47;;;;;;;5.95;2.92;;;22.60;90.80;;;;;;5021599;28;20030;-63
2021/08/26 03:50:13;;;;;;;3.33;3.03;;;22.50;90.50;;;;;;5022170;28;20029;-63
2021/08/26 03:52:38;;;;;;;5.05;3.15;;;22.50;90.80;;;;;;5031292;28;20041;-63
2021/08/26 03:55:05;;;;;;;4.43;2.72;;;22.50;90.60;;;;;;5013158;28;20105;-63
2021/08/26 03:57:30;;;;;;;8.90;3.10;;;22.60;90.60;;;;;;5022756;28;20105;-63
2021/08/26 03:59:56;;;;;;;4.05;2.70;;;22.50;91.00;;;;;;5017722;28;20049;-63
2021/08/26 04:02:22;;;;;;;4.32;2.85;;;22.50;91.00;;;;;;5025883;28;20029;-63
2021/08/26 04:04:48;;;;;;;3.25;2.80;;;22.50;91.50;;;;;;5035873;28;20129;-63
2021/08/26 04:07:15;;;;;;;3.70;2.58;;;22.40;91.40;;;;;;5034587;28;20038;-63
2021/08/26 04:09:41;;;;;;;4.13;2.90;;;22.50;91.40;;;;;;5024719;28;20018;-63
2021/08/26 04:12:08;;;;;;;2.75;2.50;;;22.50;91.10;;;;;;5030008;28;20034;-63
2021/08/26 04:14:33;;;;;;;4.35;3.05;;;22.50;91.10;;;;;;5018221;28;20099;-63
2021/08/26 04:16:59;;;;;;;4.18;3.22;;;22.50;90.70;;;;;;5032373;28;20120;-63
2021/08/26 04:19:25;;;;;;;2.88;2.45;;;22.50;91.00;;;;;;5033882;28;20104;-63
2021/08/26 04:21:50;;;;;;;3.80;2.78;;;22.50;91.40;;;;;;5027486;28;20029;-63
2021/08/26 04:24:16;;;;;;;3.95;2.58;;;22.50;91.50;;;;;;5032009;28;20088;-63
2021/08/26 04:26:41;;;;;;;5.22;2.35;;;22.50;91.40;;;;;;5023566;28;20037;-63
2021/08/26 04:29:08;;;;;;;5.30;2.60;;;22.50;91.20;;;;;;5035502;28;20026;-63
2021/08/26 04:31:34;;;;;;;5.95;2.90;;;22.40;91.30;;;;;;5028272;28;20037;-63
2021/08/26 04:34:00;;;;;;;3.70;3.20;;;22.50;91.40;;;;;;5035179;28;20387;-63
2021/08/26 04:36:25;;;;;;;3.08;2.28;;;22.50;91.30;;;;;;5028858;28;20025;-63
2021/08/26 04:38:51;;;;;;;5.22;2.58;;;22.50;91.40;;;;;;5033794;28;20486;-63
2021/08/26 04:41:16;;;;;;;3.85;2.67;;;22.50;91.10;;;;;;5035092;28;20129;-63
2021/08/26 04:43:42;;;;;;;4.45;2.83;;;22.40;91.20;;;;;;5035223;28;20029;-63
2021/08/26 04:46:08;;;;;;;3.58;2.63;;;22.40;91.40;;;;;;5034595;28;20539;-63
2021/08/26 04:48:33;;;;;;;3.95;2.58;;;22.40;91.20;;;;;;5030953;28;20026;-63
2021/08/26 04:50:59;;;;;;;4.40;2.47;;;22.40;91.60;;;;;;5032431;28;20036;-64
2021/08/26 04:53:24;;;;;;;5.53;2.78;;;22.40;91.60;;;;;;5025658;28;20026;-63
2021/08/26 04:55:50;;;;;;;3.22;2.50;;;22.30;92.00;;;;;;5021582;28;20376;-63
2021/08/26 04:58:15;;;;;;;2.88;2.40;;;22.40;92.20;;;;;;5030853;28;20123;-63
2021/08/26 05:00:41;;;;;;;5.78;2.85;;;22.40;92.10;;;;;;5018431;28;20048;-63
2021/08/26 05:03:07;;;;;;;3.67;2.72;;;22.40;92.20;;;;;;5028388;28;20029;-63
2021/08/26 05:05:32;;;;;;;9.38;3.03;;;22.40;92.20;;;;;;5034497;28;20033;-63
2021/08/26 05:07:58;;;;;;;4.68;2.33;;;22.30;92.70;;;;;;5026830;28;20026;-63
2021/08/26 05:10:23;;;;;;;4.00;2.35;;;22.30;92.90;;;;;;5034117;28;20356;-63
2021/08/26 05:12:49;;;;;;;7.55;2.88;;;22.30;93.40;;;;;;5030674;28;20029;-63
2021/08/26 05:15:14;;;;;;;5.40;3.03;;;22.30;92.90;;;;;;5016942;28;20077;-63
2021/08/26 05:17:40;;;;;;;4.88;2.17;;;22.40;93.10;;;;;;5019524;28;20109;-63
2021/08/26 05:20:06;;;;;;;3.22;2.03;;;22.50;92.90;;;;;;5023969;28;20022;-63
2021/08/26 05:22:32;;;;;;;4.13;2.67;;;22.40;92.80;;;;;;5030441;28;20033;-63
2021/08/26 05:24:58;;;;;;;3.33;2.47;;;22.40;92.90;;;;;;5022950;28;20068;-63
2021/08/26 05:27:23;;;;;;;4.28;2.42;;;22.50;92.60;;;;;;5032733;28;20041;-63
2021/08/26 05:29:49;;;;;;;4.35;2.30;;;22.50;92.80;;;;;;5034574;28;20033;-63
2021/08/26 05:32:15;;;;;;;3.88;2.35;;;22.50;93.00;;;;;;5033443;28;20026;-63
2021/08/26 05:34:42;;;;;;;3.65;2.70;;;22.50;93.10;;;;;;5027347;28;20014;-63
2021/08/26 05:37:08;;;;;;;5.00;2.35;;;22.60;92.70;;;;;;5022157;28;20049;-63
2021/08/26 05:39:34;;;;;;;5.38;2.80;;;22.60;92.80;;;;;;5024355;28;20021;-63
2021/08/26 05:42:00;;;;;;;5.10;2.67;;;22.60;92.90;;;;;;5020588;28;20036;-63
2021/08/26 05:44:26;;;;;;;3.95;2.15;;;22.60;92.90;;;;;;5034357;28;20032;-63
2021/08/26 05:46:51;;;;;;;7.55;2.50;;;22.60;93.20;;;;;;5021856;28;20041;-63
2021/08/26 05:49:17;;;;;;;4.75;2.55;;;22.60;93.50;;;;;;5023099;28;20057;-63
2021/08/26 05:51:42;;;;;;;6.90;3.05;;;22.60;93.70;;;;;;5026477;28;20034;-63
2021/08/26 05:54:08;;;;;;;5.07;2.38;;;22.60;93.10;;;;;;5025033;28;20138;-63
2021/08/26 05:56:33;;;;;;;3.53;2.38;;;22.50;94.00;;;;;;5027555;28;20018;-63
2021/08/26 05:58:59;;;;;;;3.28;2.38;;;22.60;93.80;;;;;;5032282;28;20065;-63
2021/08/26 06:01:29;;;;;;;3.30;2.50;;;22.70;94.00;;;;;;5023791;28;20036;-63
2021/08/26 06:03:55;;;;;;;5.25;2.33;;;22.80;94.50;;;;;;5026401;28;20075;-63
2021/08/26 06:06:21;;;;;;;5.43;2.58;;;22.80;94.60;;;;;;5028491;28;20046;-63
2021/08/26 06:08:47;;;;;;;7.18;2.47;;;22.80;94.90;;;;;;5025747;28;20021;-63
2021/08/26 06:11:13;;;;;;;7.43;2.30;;;22.80;95.00;;;;;;5024548;28;20040;-63
2021/08/26 06:13:38;;;;;;;4.38;2.33;;;22.90;92.00;;;;;;5028714;28;20117;-63
2021/08/26 06:16:04;;;;;;;3.30;2.42;;;22.90;90.90;;;;;;5025114;28;20026;-63
2021/08/26 06:18:30;;;;;;;4.55;2.13;;;22.90;90.70;;;;;;5025650;28;20018;-63
2021/08/26 06:20:56;;;;;;;2.97;2.60;;;22.90;90.30;;;;;;5030914;28;20498;-62
2021/08/26 06:23:22;;;;;;;6.03;2.55;;;23.00;90.60;;;;;;5023390;28;20065;-62
2021/08/26 06:25:48;;;;;;;4.15;2.35;;;23.00;90.30;;;;;;5035094;28;20371;-62
2021/08/26 06:28:13;;;;;;;4.03;2.50;;;22.90;90.10;;;;;;5027971;28;20075;-62
2021/08/26 06:30:39;;;;;;;5.03;2.33;;;22.90;89.80;;;;;;5030380;28;20037;-63
2021/08/26 06:33:04;;;;;;;6.28;2.20;;;23.00;90.20;;;;;;5021275;28;20090;-62
2021/08/26 06:35:31;;;;;;;4.15;2.28;;;23.00;90.50;;;;;;5024519;28;20029;-62
2021/08/26 06:37:57;;;;;;;6.85;1.90;;;23.00;88.80;;;;;;5024927;28;20487;-61
2021/08/26 06:40:22;;;;;;;5.30;2.30;;;23.00;88.30;;;;;;5026857;28;20116;-63
2021/08/26 06:42:48;;;;;;;5.57;2.58;;;23.00;89.80;;;;;;5030172;28;20033;-62
2021/08/26 06:45:13;;;;;;;6.85;2.42;;;23.10;89.60;;;;;;5028969;28;20037;-62
2021/08/26 06:47:39;;;;;;;4.60;2.45;;;23.20;90.10;;;;;;5019411;28;20041;-62
2021/08/26 06:50:05;;;;;;;5.30;2.60;;;23.20;90.10;;;;;;5011170;28;20033;-62
2021/08/26 06:52:30;;;;;;;6.40;2.45;;;23.00;89.80;;;;;;5013502;28;20026;-63
2021/08/26 06:54:56;;;;;;;4.18;2.30;;;23.10;89.60;;;;;;5021314;28;20026;-62
2021/08/26 06:57:24;;;;;;;7.30;2.58;;;23.10;89.80;;;;;;5021537;28;20115;-63
2021/08/26 06:59:49;;;;;;;5.55;2.20;;;23.10;90.10;;;;;;5032266;28;20088;-63
2021/08/26 07:02:15;;;;;;;6.03;2.42;;;23.20;90.30;;;;;;5032214;28;20502;-63
2021/08/26 07:04:40;;;;;;;5.10;2.70;;;23.20;90.40;;;;;;5033211;28;20109;-63
2021/08/26 07:07:06;;;;;;;5.28;2.75;;;23.10;90.40;;;;;;5031673;28;20513;-63
2021/08/26 07:09:32;;;;;;;8.35;2.72;;;23.10;90.10;;;;;;5033457;28;20037;-63
2021/08/26 07:11:57;;;;;;;4.20;3.15;;;23.10;90.40;;;;;;5033043;28;20476;-63
2021/08/26 07:14:23;;;;;;;6.38;2.45;;;23.10;90.10;;;;;;5032132;28;20037;-62
2021/08/26 07:16:48;;;;;;;4.45;2.70;;;23.10;90.80;;;;;;5030076;28;20033;-62
2021/08/26 07:19:14;;;;;;;7.57;3.00;;;23.20;90.80;;;;;;5030242;28;20483;-62
2021/08/26 07:21:41;;;;;;;4.75;3.20;;;23.20;90.80;;;;;;5030587;28;20049;-63
2021/08/26 07:24:07;;;;;;;5.25;3.42;;;23.20;91.20;;;;;;5032038;28;20018;-63
2021/08/26 07:26:32;;;;;;;4.93;3.08;;;23.30;91.90;;;;;;5031154;28;20403;-62
2021/08/26 07:28:58;;;;;;;6.20;3.30;;;23.30;91.50;;;;;;5031871;28;20032;-62
2021/08/26 07:31:24;;;;;;;6.00;3.40;;;23.20;92.20;;;;;;5032752;28;20029;-63
2021/08/26 07:33:49;;;;;;;6.38;3.53;;;23.30;92.60;;;;;;5029521;28;20040;-63
2021/08/26 07:36:15;;;;;;;7.93;3.33;;;23.30;92.50;;;;;;5027849;28;20033;-62
2021/08/26 07:38:41;;;;;;;5.95;3.25;;;23.30;92.40;;;;;;5031717;28;20360;-63
2021/08/26 07:41:06;;;;;;;4.10;3.70;;;23.40;92.50;;;;;;5032409;28;20116;-63
2021/08/26 07:43:35;;;;;;;9.90;4.05;;;23.30;92.20;;;;;;5024568;28;20028;-62
2021/08/26 07:46:00;;;;;;;8.32;3.78;;;23.30;91.90;;;;;;5032902;28;20030;-63
2021/08/26 07:48:26;;;;;;;8.23;3.83;;;23.30;91.80;;;;;;5031445;28;20052;-62
2021/08/26 07:50:53;;;;;;;6.38;3.95;;;23.30;92.10;;;;;;5032764;28;20025;-63
2021/08/26 07:53:20;;;;;;;5.00;3.20;;;23.40;91.80;;;;;;5031476;28;20430;-63
2021/08/26 07:55:45;;;;;;;17.33;4.97;;;23.50;92.10;;;;;;5032519;28;20475;-63
2021/08/26 07:58:11;;;;;;;8.32;4.00;;;23.40;91.50;;;;;;5025042;28;20105;-63
2021/08/26 08:00:37;;;;;;;9.57;4.32;;;23.50;91.70;;;;;;5012532;28;20049;-63
2021/08/26 08:03:03;;;;;;;9.35;4.65;;;23.60;91.70;;;;;;5018290;28;20382;-63
2021/08/26 08:05:29;;;;;;;7.60;4.03;;;23.60;91.60;;;;;;5032431;28;20029;-63
2021/08/26 08:07:55;;;;;;;12.20;4.95;;;23.60;91.50;;;;;;5031149;28;20040;-63
2021/08/26 08:10:20;;;;;;;4.57;4.05;;;23.70;91.50;;;;;;5032480;28;20130;-63
2021/08/26 08:12:46;;;;;;;6.45;3.78;;;23.70;91.60;;;;;;5027390;28;20049;-64
2021/08/26 08:15:11;;;;;;;10.15;5.18;;;23.70;91.60;;;;;;5031209;28;20053;-64
2021/08/26 08:17:37;;;;;;;7.50;4.90;;;23.80;90.50;;;;;;5023150;28;20041;-63
2021/08/26 08:20:06;;;;;;;10.70;5.03;;;23.90;90.30;;;;;;5032194;28;20022;-63
2021/08/26 08:22:31;;;;;;;7.90;4.30;;;23.80;90.60;;;;;;5031071;28;20040;-63
2021/08/26 08:24:57;;;;;;;7.22;4.38;;;23.90;91.20;;;;;;5032253;28;20399;-63
2021/08/26 08:27:22;;;;;;;7.22;3.83;;;24.00;91.40;;;;;;5030869;28;20108;-63
2021/08/26 08:29:48;;;;;;;5.78;3.40;;;24.00;92.00;;;;;;5029868;28;20034;-63
2021/08/26 08:32:14;;;;;;;5.95;4.05;;;24.10;92.20;;;;;;5032270;28;20391;-63
2021/08/26 08:34:40;;;;;;;9.38;5.32;;;24.20;91.70;;;;;;5031422;28;20088;-63
2021/08/26 08:37:06;;;;;;;8.60;4.82;;;24.10;91.50;;;;;;5024060;28;20365;-63
2021/08/26 08:39:32;;;;;;;6.97;5.20;;;24.10;91.50;;;;;;5032177;28;20040;-63
2021/08/26 08:41:57;;;;;;;7.50;4.95;;;24.10;91.20;;;;;;5030966;28;20474;-63
2021/08/26 08:44:23;;;;;;;9.05;5.45;;;24.10;91.20;;;;;;5030115;28;20034;-63
2021/08/26 08:46:49;;;;;;;6.05;5.22;;;24.20;91.30;;;;;;5030648;28;20095;-63
2021/08/26 08:49:20;;;;;;;8.48;4.47;;;24.20;91.00;;;;;;5035652;28;20068;-63
2021/08/26 08:51:45;;;;;;;5.78;4.00;;;24.40;91.20;;;;;;5034422;28;20032;-63
2021/08/26 08:54:11;;;;;;;8.10;4.47;;;24.40;91.20;;;;;;5028357;28;20391;-63
2021/08/26 08:56:36;;;;;;;8.95;4.65;;;24.50;91.10;;;;;;5023016;28;20123;-63
2021/08/26 08:59:03;;;;;;;6.13;4.22;;;24.60;90.50;;;;;;5034944;28;20554;-62
2021/08/26 09:01:29;;;;;;;9.07;4.57;;;24.70;90.70;;;;;;5033169;28;20048;-63
2021/08/26 09:03:55;;;;;;;9.95;4.28;;;24.80;90.40;;;;;;5035436;28;20025;-63
2021/08/26 09:06:21;;;;;;;8.27;4.50;;;24.80;89.90;;;;;;5034156;28;20044;-63
2021/08/26 09:09:04;;;;;;;8.38;5.07;;;24.90;88.90;;;;;;5035322;28;20024;-62
2021/08/26 09:11:31;;;;;;;6.15;4.43;;;24.90;87.30;;;;;;5034151;28;20497;-62
2021/08/26 09:14:08;;;;;;;4.60;4.03;;;24.80;89.60;;;;;;5028422;28;20030;-63
2021/08/26 09:16:40;;;;;;;5.90;4.63;;;25.00;89.20;;;;;;5023322;28;20022;-63
2021/08/26 09:19:30;;;;;;;8.93;5.15;;;25.10;90.00;;;;;;5035205;28;20091;-63
2021/08/26 09:21:58;;;;;;;7.47;4.95;;;25.10;89.20;;;;;;5034271;28;20026;-62
2021/08/26 09:24:40;;;;;;;9.98;5.53;;;25.10;82.40;;;;;;5035220;28;20029;-62
2021/08/26 09:27:06;;;;;;;10.63;5.95;;;25.20;81.90;;;;;;5033604;28;20033;-63
2021/08/26 09:29:32;;;;;;;11.20;6.90;;;25.20;82.10;;;;;;5034887;28;20047;-62
2021/08/26 09:31:59;;;;;;;9.82;6.72;;;25.20;83.70;;;;;;5033845;28;20033;-63
2021/08/26 09:34:24;;;;;;;8.32;6.43;;;25.30;86.30;;;;;;5034487;28;20479;-62
2021/08/26 09:36:51;;;;;;;6.85;5.97;;;25.30;90.60;;;;;;5032637;28;20026;-63
2021/08/26 09:39:19;;;;;;;7.85;5.50;;;25.30;79.70;;;;;;5034158;28;20535;-63
2021/08/26 09:41:45;;;;;;;9.73;6.63;;;25.50;80.40;;;;;;5033261;28;20061;-63
2021/08/26 09:44:17;;;;;;;8.60;6.95;;;25.60;90.20;;;;;;5029037;28;20057;-62
2021/08/26 09:46:45;;;;;;;11.95;6.28;;;25.50;66.40;;;;;;5026409;28;20368;-63
2021/08/26 09:49:13;;;;;;;7.03;5.55;;;25.60;65.90;;;;;;5034545;28;20017;-63
2021/08/26 09:51:40;;;;;;;7.70;6.03;;;25.60;66.10;;;;;;5033301;28;20033;-63
2021/08/26 09:54:26;;;;;;;9.02;6.20;;;25.70;65.90;;;;;;5034438;28;20028;-63
2021/08/26 09:56:52;;;;;;;9.70;5.20;;;25.70;65.40;;;;;;5031122;28;20383;-63
2021/08/26 09:59:17;;;;;;;7.93;5.25;;;25.80;65.30;;;;;;5033166;28;20103;-63
2021/08/26 10:01:44;;;;;;;8.70;5.95;;;26.00;64.60;;;;;;5033536;28;20108;-62
2021/08/26 10:04:39;;;;;;;7.85;4.38;;;26.00;62.60;;;;;;5034962;28;20037;-62
2021/08/26 10:07:05;;;;;;;6.78;4.82;;;26.00;61.60;;;;;;5007557;28;20046;-62
2021/08/26 10:09:32;;;;;;;8.85;5.35;;;26.00;59.00;;;;;;5034363;28;20494;-63
2021/08/26 10:11:58;;;;;;;9.80;4.97;;;26.00;59.20;;;;;;5032877;28;20060;-62
2021/08/26 10:14:25;;;;;;;4.78;3.92;;;26.10;57.90;;;;;;5015162;28;20034;-62
2021/08/26 10:16:51;;;;;;;10.32;5.30;;;26.20;58.60;;;;;;5023264;28;20061;-62
2021/08/26 10:19:17;;;;;;;7.68;5.50;;;26.30;58.10;;;;;;5034103;28;20057;-62
2021/08/26 10:21:44;;;;;;;8.45;4.90;;;26.30;58.20;;;;;;5033073;28;20438;-63
2021/08/26 10:24:13;;;;;;;5.90;3.78;;;26.30;57.20;;;;;;5033974;28;20103;-63
2021/08/26 10:26:47;;;;;;;8.35;4.95;;;26.40;57.70;;;;;;5032156;28;20050;-63
2021/08/26 10:29:15;;;;;;;7.30;4.47;;;26.40;57.30;;;;;;5034190;28;20034;-63
2021/08/26 10:31:50;;;;;;;7.32;4.25;;;26.60;58.30;;;;;;5032806;28;20074;-63
2021/08/26 10:34:23;;;;;;;7.30;4.63;;;26.70;56.40;;;;;;5034081;28;20021;-63
2021/08/26 10:36:55;;;;;;;4.70;3.85;;;26.70;54.70;;;;;;5032593;28;20191;-63
2021/08/26 10:39:34;;;;;;;7.03;4.55;;;26.80;60.30;;;;;;5033920;28;20034;-63
2021/08/26 10:42:39;;;;;;;7.63;4.40;;;26.80;60.20;;;;;;5032666;28;20467;-63
2021/08/26 10:45:05;;;;;;;;;;;27.10;58.20;;;;;;4946602;28;20031;-63
2021/08/26 10:47:49;;;;;;;6.47;3.90;;;27.00;57.50;;;;;;4946465;28;19917;-63
2021/08/26 10:50:33;;;;;;;5.88;2.78;;;27.10;56.10;;;;;;4984059;28;20030;-63
2021/08/26 10:53:08;;;;;;;6.25;3.30;;;27.10;53.40;;;;;;5031546;28;20025;-63
2021/08/26 10:55:33;;;;;;;5.55;2.40;;;27.30;54.40;;;;;;5032351;28;20199;-64
2021/08/26 10:58:21;;;;;;;6.05;3.60;;;27.30;52.10;;;;;;5012114;28;20053;-64
2021/08/26 11:00:54;;;;;;;6.03;2.47;;;27.50;51.40;;;;;;5031092;28;20102;-64
2021/08/26 11:03:35;;;;;;;5.32;2.08;;;27.70;50.80;;;;;;5031300;28;20049;-64
2021/08/26 11:06:22;;;;;;;4.95;1.85;;;27.70;45.60;;;;;;5032219;28;20033;-64
2021/08/26 11:09:18;;;;;;;3.85;1.85;;;27.40;45.70;;;;;;5006297;28;20125;-63
2021/08/26 11:11:45;;;;;;;2.72;1.63;;;27.50;45.80;;;;;;5001704;28;20032;-63
2021/08/26 11:14:23;;;;;;;5.03;1.95;;;27.70;46.10;;;;;;5031777;28;20022;-64
2021/08/26 11:16:50;;;;;;;4.07;2.50;;;27.80;46.50;;;;;;5017660;28;20040;-63
2021/08/26 11:19:15;;;;;;;9.30;3.22;;;27.80;47.30;;;;;;5031585;28;20025;-64
2021/08/26 11:21:44;;;;;;;2.47;1.85;;;28.20;46.30;;;;;;5032120;28;20379;-64
2021/08/26 11:24:10;;;;;;;3.22;1.60;;;28.00;46.20;;;;;;5032888;28;20061;-63
2021/08/26 11:26:44;;;;;;;2.58;1.35;;;28.20;44.00;;;;;;5031544;28;20046;-64
2021/08/26 11:29:25;;;;;;;3.15;1.55;;;28.50;42.90;;;;;;5032438;28;20021;-64
2021/08/26 11:31:53;;;;;;;5.22;1.70;;;28.70;42.90;;;;;;5032288;28;20383;-63
2021/08/26 11:34:38;;;;;;;3.33;1.85;;;28.40;44.10;;;;;;5032953;28;20029;-63
2021/08/26 11:37:08;;;;;;;3.38;2.28;;;28.60;42.80;;;;;;5031486;28;20480;-64
2021/08/26 11:39:56;;;;;;;2.80;2.00;;;29.10;51.30;;;;;;5032722;28;20021;-64
2021/08/26 11:42:26;;;;;;;2.22;1.65;;;29.30;49.10;;;;;;5032236;28;20463;-64
2021/08/26 11:45:11;;;;;;;1.67;1.40;;;;;;;;;;5027611;28;20043;-63
2021/08/26 11:47:39;;;;;;;1.92;1.33;;;30.30;40.10;;;;;;5031536;28;20056;-64
2021/08/26 11:50:24;;;;;;;2.58;1.42;;;33.60;35.20;;;;;;5032502;28;20038;-64
2021/08/26 11:52:56;;;;;;;2.60;2.13;;;35.80;35.80;;;;;;5021367;28;20105;-64
2021/08/26 11:55:30;;;;;;;2.85;2.40;;;36.60;38.20;;;;;;5013005;28;20484;-64
2021/08/26 11:57:59;;;;;;;;;;;36.20;39.30;;;;;;5026189;28;20061;-64
2021/08/26 12:00:26;;;;;;;4.40;2.17;;;36.50;37.90;;;;;;5032409;28;19952;-63
2021/08/26 12:02:54;;;;;;;3.42;1.77;;;36.70;38.80;;;;;;5031150;28;20104;-64
2021/08/26 12:05:21;;;;;;;4.30;1.90;;;36.10;37.10;;;;;;5032970;28;20104;-64
2021/08/26 12:07:48;;;;;;;5.38;2.28;;;34.30;39.60;;;;;;5031459;28;20038;-64
2021/08/26 12:10:25;;;;;;;2.20;2.00;;;34.40;39.00;;;;;;5032491;28;20053;-64
2021/08/26 12:12:54;;;;;;;4.88;2.55;;;34.00;38.30;;;;;;5026362;28;20038;-64
2021/08/26 12:15:39;;;;;;;2.97;2.38;;;33.60;31.00;;;;;;5012721;28;20555;-64
2021/08/26 12:18:09;;;;;;;5.55;2.88;;;34.70;27.50;;;;;;5026442;28;20502;-64
2021/08/26 12:20:40;;;;;;;2.60;1.98;;;35.50;26.50;;;;;;5032404;28;20079;-64
2021/08/26 12:23:06;;;;;;;2.63;2.42;;;36.30;27.00;;;;;;5030986;28;20124;-64
2021/08/26 12:25:38;;;;;;;3.95;2.25;;;36.30;31.00;;;;;;5016333;28;20069;-64
2021/08/26 12:28:06;;;;;;;4.97;2.50;;;36.70;54.80;;;;;;5029649;28;20426;-64
2021/08/26 12:30:43;;;;;;;3.30;2.33;;;36.40;33.50;;;;;;5036044;28;20029;-64
2021/08/26 12:33:14;;;;;;;7.22;3.03;;;37.00;32.30;;;;;;5034676;28;20108;-64
2021/08/26 12:35:51;;;;;;;2.45;2.28;;;37.20;49.60;;;;;;5036322;28;20052;-64
2021/08/26 12:38:30;;;;;;;3.65;2.15;;;36.70;25.00;;;;;;5034891;28;20076;-64
2021/08/26 12:40:58;;;;;;;5.57;2.72;;;37.10;23.50;;;;;;5033695;28;20025;-64
2021/08/26 12:43:26;;;;;;;2.38;2.13;;;37.70;24.70;;;;;;5023627;28;20442;-62
2021/08/26 12:46:05;;;;;;;4.00;2.55;;;37.40;23.70;;;;;;5035665;28;20045;-62
2021/08/26 12:48:36;;;;;;;3.03;2.30;;;37.70;22.60;;;;;;5034692;28;20084;-62
2021/08/26 12:51:06;;;;;;;2.53;2.42;;;38.40;22.70;;;;;;5034537;28;20105;-62
2021/08/26 12:53:31;;;;;;;2.97;2.75;;;38.10;21.80;;;;;;5034643;28;20040;-62
2021/08/26 12:56:02;;;;;;;3.40;2.70;;;38.70;20.90;;;;;;5035580;28;20021;-62
2021/08/26 12:58:28;;;;;;;4.93;2.72;;;39.60;21.20;;;;;;5032788;28;20052;-63